sensor_id;sensor_type;location;lat;lon;timestamp;pressure;altitude;pressure_sealevel;temperature;humidity
72118;BME280;59992;47.490;8.736;2022-12-18T00:01:35;97519.10;;;-2.07;85.59
72118;BME280;59992;47.490;8.736;2022-12-18T00:04:11;97536.67;;;-2.03;85.72
72118;BME280;59992;47.490;8.736;2022-12-18T00:06:44;97544.32;;;-2.02;85.27
72118;BME280;59992;47.490;8.736;2022-12-18T00:09:14;97545.19;;;-2.05;85.14
72118;BME280;59992;47.490;8.736;2022-12-18T00:11:44;97547.96;;;-2.03;85.41
72118;BME280;59992;47.490;8.736;2022-12-18T00:14:14;97547.84;;;-2.03;85.33
72118;BME280;59992;47.490;8.736;2022-12-18T00:16:46;97541.55;;;-2.08;85.87
72118;BME280;59992;47.490;8.736;2022-12-18T00:19:16;97549.98;;;-2.08;85.59
72118;BME280;59992;47.490;8.736;2022-12-18T00:21:46;97552.45;;;-2.10;86.06
72118;BME280;59992;47.490;8.736;2022-12-18T00:24:16;97558.73;;;-2.12;86.96
72118;BME280;59992;47.490;8.736;2022-12-18T00:26:48;97556.84;;;-2.17;87.30
72118;BME280;59992;47.490;8.736;2022-12-18T00:29:17;97552.30;;;-2.22;87.86
72118;BME280;59992;47.490;8.736;2022-12-18T00:31:47;97555.60;;;-2.16;87.06
72118;BME280;59992;47.490;8.736;2022-12-18T00:34:17;97562.67;;;-2.13;86.35
72118;BME280;59992;47.490;8.736;2022-12-18T00:36:48;97568.29;;;-2.12;86.06
72118;BME280;59992;47.490;8.736;2022-12-18T00:39:18;97569.77;;;-2.15;87.49
72118;BME280;59992;47.490;8.736;2022-12-18T00:41:49;97568.91;;;-2.14;87.83
72118;BME280;59992;47.490;8.736;2022-12-18T00:44:36;97560.81;;;-2.10;88.01
72118;BME280;59992;47.490;8.736;2022-12-18T00:47:07;97555.74;;;-2.03;87.04
72118;BME280;59992;47.490;8.736;2022-12-18T00:49:36;97551.77;;;-2.00;86.06
72118;BME280;59992;47.490;8.736;2022-12-18T00:52:06;97548.58;;;-2.00;85.55
72118;BME280;59992;47.490;8.736;2022-12-18T00:54:35;97544.95;;;-2.04;85.69
72118;BME280;59992;47.490;8.736;2022-12-18T00:57:05;97545.10;;;-2.03;86.03
72118;BME280;59992;47.490;8.736;2022-12-18T00:59:35;97554.23;;;-2.01;86.43
72118;BME280;59992;47.490;8.736;2022-12-18T01:02:05;97561.52;;;-2.01;86.05
72118;BME280;59992;47.490;8.736;2022-12-18T01:04:35;97570.09;;;-2.00;85.68
72118;BME280;59992;47.490;8.736;2022-12-18T01:07:05;97575.34;;;-1.99;86.14
72118;BME280;59992;47.490;8.736;2022-12-18T01:09:34;97579.80;;;-2.03;86.40
72118;BME280;59992;47.490;8.736;2022-12-18T01:12:05;97580.48;;;-2.00;86.39
72118;BME280;59992;47.490;8.736;2022-12-18T01:14:35;97578.82;;;-2.00;86.98
72118;BME280;59992;47.490;8.736;2022-12-18T01:17:06;97575.19;;;-2.01;87.27
72118;BME280;59992;47.490;8.736;2022-12-18T01:19:36;97573.11;;;-1.99;86.43
72118;BME280;59992;47.490;8.736;2022-12-18T01:22:05;97572.43;;;-1.98;86.10
72118;BME280;59992;47.490;8.736;2022-12-18T01:24:35;97579.95;;;-2.00;86.33
72118;BME280;59992;47.490;8.736;2022-12-18T01:27:05;97585.84;;;-1.99;86.87
72118;BME280;59992;47.490;8.736;2022-12-18T01:29:35;97593.18;;;-1.95;86.56
72118;BME280;59992;47.490;8.736;2022-12-18T01:32:05;97596.67;;;-1.93;86.24
72118;BME280;59992;47.490;8.736;2022-12-18T01:34:36;97599.77;;;-1.98;86.32
72118;BME280;59992;47.490;8.736;2022-12-18T01:37:06;97602.73;;;-1.99;86.85
72118;BME280;59992;47.490;8.736;2022-12-18T01:39:36;97602.15;;;-2.02;87.40
72118;BME280;59992;47.490;8.736;2022-12-18T01:42:10;97601.27;;;-2.00;87.62
72118;BME280;59992;47.490;8.736;2022-12-18T01:45:03;97603.11;;;-1.96;86.52
72118;BME280;59992;47.490;8.736;2022-12-18T01:47:36;97605.99;;;-2.01;87.35
72118;BME280;59992;47.490;8.736;2022-12-18T01:50:12;97605.63;;;-1.98;86.94
72118;BME280;59992;47.490;8.736;2022-12-18T01:52:45;97610.20;;;-1.99;86.68
72118;BME280;59992;47.490;8.736;2022-12-18T01:55:18;97610.01;;;-1.96;87.03
72118;BME280;59992;47.490;8.736;2022-12-18T01:57:49;97608.65;;;-1.99;86.62
72118;BME280;59992;47.490;8.736;2022-12-18T02:00:22;97611.20;;;-1.97;87.23
72118;BME280;59992;47.490;8.736;2022-12-18T02:02:52;97611.95;;;-1.91;86.88
72118;BME280;59992;47.490;8.736;2022-12-18T02:05:29;97612.02;;;-1.87;85.80
72118;BME280;59992;47.490;8.736;2022-12-18T02:08:07;97604.00;;;-1.88;87.05
72118;BME280;59992;47.490;8.736;2022-12-18T02:10:44;97605.58;;;-1.83;86.28
72118;BME280;59992;47.490;8.736;2022-12-18T02:13:19;97611.25;;;-1.82;85.80
72118;BME280;59992;47.490;8.736;2022-12-18T02:16:01;97611.65;;;-1.87;86.43
72118;BME280;59992;47.490;8.736;2022-12-18T02:18:35;97607.95;;;-1.88;86.54
72118;BME280;59992;47.490;8.736;2022-12-18T02:21:16;97603.64;;;-1.89;86.39
72118;BME280;59992;47.490;8.736;2022-12-18T02:23:56;97606.56;;;-1.86;86.30
72118;BME280;59992;47.490;8.736;2022-12-18T02:26:28;97606.10;;;-1.86;86.22
72118;BME280;59992;47.490;8.736;2022-12-18T02:29:02;97603.63;;;-1.81;85.94
72118;BME280;59992;47.490;8.736;2022-12-18T02:31:38;97605.68;;;-1.85;85.85
72118;BME280;59992;47.490;8.736;2022-12-18T02:34:10;97604.20;;;-1.82;86.32
72118;BME280;59992;47.490;8.736;2022-12-18T02:36:43;97613.38;;;-1.81;86.98
72118;BME280;59992;47.490;8.736;2022-12-18T02:39:15;97615.69;;;-1.77;85.79
72118;BME280;59992;47.490;8.736;2022-12-18T02:41:45;97610.48;;;-1.77;86.11
72118;BME280;59992;47.490;8.736;2022-12-18T02:44:16;97601.69;;;-1.81;86.83
72118;BME280;59992;47.490;8.736;2022-12-18T02:46:48;97600.80;;;-1.82;86.36
72118;BME280;59992;47.490;8.736;2022-12-18T02:49:32;97605.10;;;-1.91;86.41
72118;BME280;59992;47.490;8.736;2022-12-18T02:52:10;97610.38;;;-1.96;87.16
72118;BME280;59992;47.490;8.736;2022-12-18T02:54:57;97610.84;;;-1.97;86.82
72118;BME280;59992;47.490;8.736;2022-12-18T02:57:36;97612.31;;;-2.03;87.65
72118;BME280;59992;47.490;8.736;2022-12-18T03:00:13;97620.11;;;-2.02;87.60
72118;BME280;59992;47.490;8.736;2022-12-18T03:02:48;97627.08;;;-2.02;87.48
72118;BME280;59992;47.490;8.736;2022-12-18T03:05:22;97632.06;;;-2.03;87.36
72118;BME280;59992;47.490;8.736;2022-12-18T03:07:58;97631.20;;;-2.00;87.10
72118;BME280;59992;47.490;8.736;2022-12-18T03:10:31;97631.86;;;-2.03;86.62
72118;BME280;59992;47.490;8.736;2022-12-18T03:13:04;97621.08;;;-2.08;87.10
72118;BME280;59992;47.490;8.736;2022-12-18T03:15:38;97618.32;;;-2.10;87.45
72118;BME280;59992;47.490;8.736;2022-12-18T03:18:16;97622.12;;;-2.09;87.77
72118;BME280;59992;47.490;8.736;2022-12-18T03:20:48;97628.31;;;-2.05;87.11
72118;BME280;59992;47.490;8.736;2022-12-18T03:23:24;97629.19;;;-2.07;87.64
72118;BME280;59992;47.490;8.736;2022-12-18T03:25:57;97631.89;;;-2.05;87.26
72118;BME280;59992;47.490;8.736;2022-12-18T03:28:30;97631.48;;;-2.04;87.28
72118;BME280;59992;47.490;8.736;2022-12-18T03:31:02;97628.38;;;-2.03;86.73
72118;BME280;59992;47.490;8.736;2022-12-18T03:33:39;97628.84;;;-2.04;86.62
72118;BME280;59992;47.490;8.736;2022-12-18T03:36:11;97628.09;;;-2.07;86.91
72118;BME280;59992;47.490;8.736;2022-12-18T03:38:41;97640.93;;;-2.07;87.15
72118;BME280;59992;47.490;8.736;2022-12-18T03:41:18;97647.16;;;-2.07;87.67
72118;BME280;59992;47.490;8.736;2022-12-18T03:43:55;97644.83;;;-2.07;87.19
72118;BME280;59992;47.490;8.736;2022-12-18T03:46:30;97646.94;;;-2.10;86.93
72118;BME280;59992;47.490;8.736;2022-12-18T03:49:06;97647.84;;;-2.15;87.63
72118;BME280;59992;47.490;8.736;2022-12-18T03:51:42;97649.70;;;-2.19;87.18
72118;BME280;59992;47.490;8.736;2022-12-18T03:54:14;97649.95;;;-2.19;87.29
72118;BME280;59992;47.490;8.736;2022-12-18T03:56:47;97654.52;;;-2.20;88.08
72118;BME280;59992;47.490;8.736;2022-12-18T03:59:19;97652.72;;;-2.15;88.22
72118;BME280;59992;47.490;8.736;2022-12-18T04:01:51;97649.06;;;-2.12;87.79
72118;BME280;59992;47.490;8.736;2022-12-18T04:04:23;97655.59;;;-2.11;87.82
72118;BME280;59992;47.490;8.736;2022-12-18T04:06:54;97657.19;;;-2.07;87.09
72118;BME280;59992;47.490;8.736;2022-12-18T04:09:25;97653.77;;;-2.06;87.07
72118;BME280;59992;47.490;8.736;2022-12-18T04:11:55;97656.96;;;-2.08;87.29
72118;BME280;59992;47.490;8.736;2022-12-18T04:14:25;97655.92;;;-2.09;87.28
72118;BME280;59992;47.490;8.736;2022-12-18T04:16:54;97655.89;;;-2.07;87.36
72118;BME280;59992;47.490;8.736;2022-12-18T04:19:24;97657.33;;;-2.10;87.68
72118;BME280;59992;47.490;8.736;2022-12-18T04:21:55;97658.81;;;-2.13;87.56
72118;BME280;59992;47.490;8.736;2022-12-18T04:24:24;97662.70;;;-2.15;87.56
72118;BME280;59992;47.490;8.736;2022-12-18T04:26:54;97670.69;;;-2.17;87.21
72118;BME280;59992;47.490;8.736;2022-12-18T04:29:24;97671.45;;;-2.20;87.39
72118;BME280;59992;47.490;8.736;2022-12-18T04:31:54;97676.12;;;-2.19;86.62
72118;BME280;59992;47.490;8.736;2022-12-18T04:34:24;97675.81;;;-2.20;87.19
72118;BME280;59992;47.490;8.736;2022-12-18T04:36:54;97681.27;;;-2.21;87.46
72118;BME280;59992;47.490;8.736;2022-12-18T04:39:24;97684.58;;;-2.22;87.62
72118;BME280;59992;47.490;8.736;2022-12-18T04:41:54;97688.27;;;-2.20;87.73
72118;BME280;59992;47.490;8.736;2022-12-18T04:44:23;97685.94;;;-2.20;87.66
72118;BME280;59992;47.490;8.736;2022-12-18T04:46:53;97693.16;;;-2.19;87.25
72118;BME280;59992;47.490;8.736;2022-12-18T04:49:22;97692.00;;;-2.23;87.48
72118;BME280;59992;47.490;8.736;2022-12-18T04:51:51;97699.09;;;-2.27;87.66
72118;BME280;59992;47.490;8.736;2022-12-18T04:54:21;97696.73;;;-2.29;87.50
72118;BME280;59992;47.490;8.736;2022-12-18T04:56:51;97693.36;;;-2.30;87.76
72118;BME280;59992;47.490;8.736;2022-12-18T04:59:20;97689.41;;;-2.29;87.47
72118;BME280;59992;47.490;8.736;2022-12-18T05:01:50;97694.86;;;-2.30;87.64
72118;BME280;59992;47.490;8.736;2022-12-18T05:04:20;97687.44;;;-2.28;87.57
72118;BME280;59992;47.490;8.736;2022-12-18T05:06:50;97676.22;;;-2.29;87.45
72118;BME280;59992;47.490;8.736;2022-12-18T05:09:19;97678.23;;;-2.31;87.68
72118;BME280;59992;47.490;8.736;2022-12-18T05:11:49;97672.23;;;-2.28;87.47
72118;BME280;59992;47.490;8.736;2022-12-18T05:14:19;97671.25;;;-2.27;87.71
72118;BME280;59992;47.490;8.736;2022-12-18T05:16:48;97675.73;;;-2.26;87.65
72118;BME280;59992;47.490;8.736;2022-12-18T05:19:18;97675.84;;;-2.24;87.97
72118;BME280;59992;47.490;8.736;2022-12-18T05:21:48;97679.34;;;-2.20;88.03
72118;BME280;59992;47.490;8.736;2022-12-18T05:24:18;97686.70;;;-2.14;87.43
72118;BME280;59992;47.490;8.736;2022-12-18T05:26:48;97691.25;;;-2.10;87.07
72118;BME280;59992;47.490;8.736;2022-12-18T05:29:20;97693.21;;;-2.10;87.28
72118;BME280;59992;47.490;8.736;2022-12-18T05:31:50;97696.52;;;-2.12;87.16
72118;BME280;59992;47.490;8.736;2022-12-18T05:34:20;97704.93;;;-2.15;87.37
72118;BME280;59992;47.490;8.736;2022-12-18T05:36:50;97707.56;;;-2.16;87.57
72118;BME280;59992;47.490;8.736;2022-12-18T05:39:19;97711.09;;;-2.17;87.50
72118;BME280;59992;47.490;8.736;2022-12-18T05:41:49;97703.83;;;-2.25;87.30
72118;BME280;59992;47.490;8.736;2022-12-18T05:44:19;97712.14;;;-2.24;87.66
72118;BME280;59992;47.490;8.736;2022-12-18T05:46:48;97714.24;;;-2.26;87.89
72118;BME280;59992;47.490;8.736;2022-12-18T05:49:18;97714.77;;;-2.26;87.54
72118;BME280;59992;47.490;8.736;2022-12-18T05:51:48;97714.88;;;-2.28;87.50
72118;BME280;59992;47.490;8.736;2022-12-18T05:54:18;97715.38;;;-2.28;88.16
72118;BME280;59992;47.490;8.736;2022-12-18T05:56:47;97713.42;;;-2.26;88.08
72118;BME280;59992;47.490;8.736;2022-12-18T05:59:17;97713.73;;;-2.20;87.68
72118;BME280;59992;47.490;8.736;2022-12-18T06:01:47;97710.80;;;-2.16;87.26
72118;BME280;59992;47.490;8.736;2022-12-18T06:04:17;97709.17;;;-2.10;86.67
72118;BME280;59992;47.490;8.736;2022-12-18T06:06:47;97705.48;;;-2.10;86.32
72118;BME280;59992;47.490;8.736;2022-12-18T06:09:17;97709.90;;;-2.09;86.45
72118;BME280;59992;47.490;8.736;2022-12-18T06:11:46;97710.89;;;-2.09;86.64
72118;BME280;59992;47.490;8.736;2022-12-18T06:14:16;97714.05;;;-2.10;87.03
72118;BME280;59992;47.490;8.736;2022-12-18T06:16:46;97713.13;;;-2.08;87.24
72118;BME280;59992;47.490;8.736;2022-12-18T06:19:17;97713.45;;;-2.05;86.71
72118;BME280;59992;47.490;8.736;2022-12-18T06:21:46;97718.59;;;-2.06;86.28
72118;BME280;59992;47.490;8.736;2022-12-18T06:24:17;97727.69;;;-2.11;86.63
72118;BME280;59992;47.490;8.736;2022-12-18T06:26:47;97727.76;;;-2.11;87.19
72118;BME280;59992;47.490;8.736;2022-12-18T06:29:16;97729.02;;;-2.10;86.75
72118;BME280;59992;47.490;8.736;2022-12-18T06:31:46;97726.89;;;-2.08;86.61
72118;BME280;59992;47.490;8.736;2022-12-18T06:34:16;97732.30;;;-2.09;87.03
72118;BME280;59992;47.490;8.736;2022-12-18T06:36:46;97733.52;;;-2.10;87.28
72118;BME280;59992;47.490;8.736;2022-12-18T06:39:15;97733.65;;;-2.06;86.72
72118;BME280;59992;47.490;8.736;2022-12-18T06:41:45;97739.58;;;-2.08;86.86
72118;BME280;59992;47.490;8.736;2022-12-18T06:44:15;97734.40;;;-2.04;86.95
72118;BME280;59992;47.490;8.736;2022-12-18T06:46:45;97730.56;;;-2.02;86.81
72118;BME280;59992;47.490;8.736;2022-12-18T06:49:14;97729.34;;;-1.98;86.85
72118;BME280;59992;47.490;8.736;2022-12-18T06:51:44;97733.30;;;-1.96;86.82
72118;BME280;59992;47.490;8.736;2022-12-18T06:54:14;97737.50;;;-1.96;86.63
72118;BME280;59992;47.490;8.736;2022-12-18T06:56:44;97751.38;;;-1.98;86.89
72118;BME280;59992;47.490;8.736;2022-12-18T06:59:14;97756.41;;;-1.99;86.96
72118;BME280;59992;47.490;8.736;2022-12-18T07:01:44;97766.14;;;-1.98;87.17
72118;BME280;59992;47.490;8.736;2022-12-18T07:04:13;97769.94;;;-1.95;86.28
72118;BME280;59992;47.490;8.736;2022-12-18T07:06:43;97771.02;;;-1.97;86.52
72118;BME280;59992;47.490;8.736;2022-12-18T07:09:12;97777.56;;;-1.97;87.25
72118;BME280;59992;47.490;8.736;2022-12-18T07:11:42;97780.87;;;-1.92;86.95
72118;BME280;59992;47.490;8.736;2022-12-18T07:14:11;97783.88;;;-1.86;86.12
72118;BME280;59992;47.490;8.736;2022-12-18T07:16:41;97783.45;;;-1.85;85.84
72118;BME280;59992;47.490;8.736;2022-12-18T07:19:11;97785.66;;;-1.85;85.50
72118;BME280;59992;47.490;8.736;2022-12-18T07:21:41;97787.90;;;-1.89;85.44
72118;BME280;59992;47.490;8.736;2022-12-18T07:24:11;97784.89;;;-1.90;86.00
72118;BME280;59992;47.490;8.736;2022-12-18T07:26:41;97788.72;;;-1.83;85.90
72118;BME280;59992;47.490;8.736;2022-12-18T07:29:11;97793.30;;;-1.80;85.50
72118;BME280;59992;47.490;8.736;2022-12-18T07:31:40;97797.42;;;-1.77;85.65
72118;BME280;59992;47.490;8.736;2022-12-18T07:34:13;97800.84;;;-1.73;85.70
72118;BME280;59992;47.490;8.736;2022-12-18T07:36:43;97803.20;;;-1.70;85.57
72118;BME280;59992;47.490;8.736;2022-12-18T07:39:13;97802.70;;;-1.74;84.84
72118;BME280;59992;47.490;8.736;2022-12-18T07:41:43;97799.51;;;-1.77;84.59
72118;BME280;59992;47.490;8.736;2022-12-18T07:44:33;97794.98;;;-1.79;84.58
72118;BME280;59992;47.490;8.736;2022-12-18T07:47:02;97793.05;;;-1.80;84.66
72118;BME280;59992;47.490;8.736;2022-12-18T07:49:32;97797.21;;;-1.77;84.47
72118;BME280;59992;47.490;8.736;2022-12-18T07:52:01;97797.97;;;-1.74;84.64
72118;BME280;59992;47.490;8.736;2022-12-18T07:54:32;97801.60;;;-1.75;84.53
72118;BME280;59992;47.490;8.736;2022-12-18T07:57:01;97803.06;;;-1.74;84.48
72118;BME280;59992;47.490;8.736;2022-12-18T07:59:31;97804.58;;;-1.74;84.26
72118;BME280;59992;47.490;8.736;2022-12-18T08:02:01;97805.75;;;-1.75;84.05
72118;BME280;59992;47.490;8.736;2022-12-18T08:04:30;97807.85;;;-1.73;84.31
72118;BME280;59992;47.490;8.736;2022-12-18T08:07:00;97807.45;;;-1.71;84.31
72118;BME280;59992;47.490;8.736;2022-12-18T08:09:29;97807.29;;;-1.72;84.22
72118;BME280;59992;47.490;8.736;2022-12-18T08:11:59;97811.60;;;-1.73;84.74
72118;BME280;59992;47.490;8.736;2022-12-18T08:14:29;97816.41;;;-1.69;84.56
72118;BME280;59992;47.490;8.736;2022-12-18T08:16:58;97821.32;;;-1.62;84.52
72118;BME280;59992;47.490;8.736;2022-12-18T08:19:28;97824.11;;;-1.59;84.14
72118;BME280;59992;47.490;8.736;2022-12-18T08:21:58;97816.53;;;-1.64;84.18
72118;BME280;59992;47.490;8.736;2022-12-18T08:24:28;97825.15;;;-1.56;85.11
72118;BME280;59992;47.490;8.736;2022-12-18T08:26:57;97828.92;;;-1.52;84.69
72118;BME280;59992;47.490;8.736;2022-12-18T08:29:27;97829.96;;;-1.53;84.64
72118;BME280;59992;47.490;8.736;2022-12-18T08:31:57;97835.71;;;-1.49;84.45
72118;BME280;59992;47.490;8.736;2022-12-18T08:34:27;97840.20;;;-1.45;84.67
72118;BME280;59992;47.490;8.736;2022-12-18T08:36:56;97836.77;;;-1.45;85.11
72118;BME280;59992;47.490;8.736;2022-12-18T08:39:26;97832.41;;;-1.42;85.30
72118;BME280;59992;47.490;8.736;2022-12-18T08:41:56;97829.92;;;-1.40;84.41
72118;BME280;59992;47.490;8.736;2022-12-18T08:44:43;97824.34;;;-1.45;84.52
72118;BME280;59992;47.490;8.736;2022-12-18T08:47:13;97836.64;;;-1.39;85.12
72118;BME280;59992;47.490;8.736;2022-12-18T08:49:44;97836.91;;;-1.35;84.46
72118;BME280;59992;47.490;8.736;2022-12-18T08:52:13;97841.17;;;-1.35;84.57
72118;BME280;59992;47.490;8.736;2022-12-18T08:54:43;97836.61;;;-1.35;84.02
72118;BME280;59992;47.490;8.736;2022-12-18T08:57:13;97834.65;;;-1.30;83.83
72118;BME280;59992;47.490;8.736;2022-12-18T08:59:43;97831.13;;;-1.30;84.33
72118;BME280;59992;47.490;8.736;2022-12-18T09:02:12;97819.21;;;-1.28;84.62
72118;BME280;59992;47.490;8.736;2022-12-18T09:04:42;97817.16;;;-1.21;84.15
72118;BME280;59992;47.490;8.736;2022-12-18T09:07:12;97813.52;;;-1.17;84.76
72118;BME280;59992;47.490;8.736;2022-12-18T09:09:42;97810.48;;;-1.12;84.05
72118;BME280;59992;47.490;8.736;2022-12-18T09:12:12;97808.86;;;-1.03;83.77
72118;BME280;59992;47.490;8.736;2022-12-18T09:14:41;97804.52;;;-0.96;82.16
72118;BME280;59992;47.490;8.736;2022-12-18T09:17:11;97801.77;;;-0.94;82.68
72118;BME280;59992;47.490;8.736;2022-12-18T09:19:41;97802.73;;;-0.86;82.58
72118;BME280;59992;47.490;8.736;2022-12-18T09:22:11;97806.06;;;-0.83;82.87
72118;BME280;59992;47.490;8.736;2022-12-18T09:24:40;97807.11;;;-0.81;83.61
72118;BME280;59992;47.490;8.736;2022-12-18T09:27:11;97806.61;;;-0.72;82.04
72118;BME280;59992;47.490;8.736;2022-12-18T09:29:40;97806.30;;;-0.68;82.21
72118;BME280;59992;47.490;8.736;2022-12-18T09:32:10;97804.63;;;-0.71;82.89
72118;BME280;59992;47.490;8.736;2022-12-18T09:34:40;97807.02;;;-0.70;82.50
72118;BME280;59992;47.490;8.736;2022-12-18T09:37:10;97814.85;;;-0.68;82.41
72118;BME280;59992;47.490;8.736;2022-12-18T09:39:40;97816.10;;;-0.65;82.34
72118;BME280;59992;47.490;8.736;2022-12-18T09:42:17;97814.65;;;-0.59;82.22
72118;BME280;59992;47.490;8.736;2022-12-18T09:44:52;97811.00;;;-0.59;81.88
72118;BME280;59992;47.490;8.736;2022-12-18T09:47:25;97806.73;;;-0.59;80.93
72118;BME280;59992;47.490;8.736;2022-12-18T09:50:00;97815.14;;;-0.50;81.01
72118;BME280;59992;47.490;8.736;2022-12-18T09:52:34;97819.70;;;-0.54;80.69
72118;BME280;59992;47.490;8.736;2022-12-18T09:55:13;97822.22;;;-0.50;81.12
72118;BME280;59992;47.490;8.736;2022-12-18T09:57:51;97819.01;;;-0.40;81.01
72118;BME280;59992;47.490;8.736;2022-12-18T10:00:23;97814.27;;;-0.37;80.44
72118;BME280;59992;47.490;8.736;2022-12-18T10:02:58;97818.54;;;-0.32;81.10
72118;BME280;59992;47.490;8.736;2022-12-18T10:05:36;97818.40;;;-0.27;79.82
72118;BME280;59992;47.490;8.736;2022-12-18T10:08:13;97816.47;;;-0.21;80.30
72118;BME280;59992;47.490;8.736;2022-12-18T10:10:49;97811.63;;;-0.09;81.35
72118;BME280;59992;47.490;8.736;2022-12-18T10:13:26;97813.65;;;-0.07;81.11
72118;BME280;59992;47.490;8.736;2022-12-18T10:16:11;97813.55;;;-0.18;80.31
72118;BME280;59992;47.490;8.736;2022-12-18T10:18:56;97814.70;;;-0.23;80.34
72118;BME280;59992;47.490;8.736;2022-12-18T10:21:32;97815.70;;;-0.24;81.20
72118;BME280;59992;47.490;8.736;2022-12-18T10:24:12;97813.55;;;-0.28;79.80
72118;BME280;59992;47.490;8.736;2022-12-18T10:26:45;97812.44;;;-0.45;78.51
72118;BME280;59992;47.490;8.736;2022-12-18T10:29:16;97813.48;;;-0.33;79.25
72118;BME280;59992;47.490;8.736;2022-12-18T10:31:46;97821.67;;;-0.23;79.56
72118;BME280;59992;47.490;8.736;2022-12-18T10:34:15;97817.56;;;-0.23;79.26
72118;BME280;59992;47.490;8.736;2022-12-18T10:36:45;97825.95;;;-0.19;79.39
72118;BME280;59992;47.490;8.736;2022-12-18T10:39:18;97830.38;;;-0.12;79.33
72118;BME280;59992;47.490;8.736;2022-12-18T10:41:51;97834.77;;;-0.05;79.90
72118;BME280;59992;47.490;8.736;2022-12-18T10:44:22;97828.09;;;-0.12;79.15
72118;BME280;59992;47.490;8.736;2022-12-18T10:47:03;97829.77;;;-0.13;79.38
72118;BME280;59992;47.490;8.736;2022-12-18T10:49:34;97828.98;;;-0.18;79.04
72118;BME280;59992;47.490;8.736;2022-12-18T10:52:14;97830.33;;;-0.20;80.20
72118;BME280;59992;47.490;8.736;2022-12-18T10:54:50;97830.70;;;-0.22;79.44
72118;BME280;59992;47.490;8.736;2022-12-18T10:57:33;97824.17;;;-0.26;79.20
72118;BME280;59992;47.490;8.736;2022-12-18T11:00:27;97830.27;;;-0.20;78.91
72118;BME280;59992;47.490;8.736;2022-12-18T11:02:58;97826.22;;;-0.09;79.27
72118;BME280;59992;47.490;8.736;2022-12-18T11:05:31;97823.92;;;0.03;79.11
72118;BME280;59992;47.490;8.736;2022-12-18T11:08:01;97823.81;;;0.09;78.79
72118;BME280;59992;47.490;8.736;2022-12-18T11:10:35;97821.19;;;0.18;78.75
72118;BME280;59992;47.490;8.736;2022-12-18T11:13:19;97816.92;;;0.17;78.04
72118;BME280;59992;47.490;8.736;2022-12-18T11:15:50;97814.48;;;0.16;77.23
72118;BME280;59992;47.490;8.736;2022-12-18T11:18:25;97809.41;;;0.20;77.62
72118;BME280;59992;47.490;8.736;2022-12-18T11:20:58;97809.84;;;0.18;77.65
72118;BME280;59992;47.490;8.736;2022-12-18T11:23:28;97806.98;;;0.12;77.65
72118;BME280;59992;47.490;8.736;2022-12-18T11:26:00;97803.20;;;0.17;77.59
72118;BME280;59992;47.490;8.736;2022-12-18T11:28:41;97796.95;;;0.14;77.23
72118;BME280;59992;47.490;8.736;2022-12-18T11:31:25;97801.61;;;0.06;78.35
72118;BME280;59992;47.490;8.736;2022-12-18T11:34:00;97788.73;;;0.00;78.23
72118;BME280;59992;47.490;8.736;2022-12-18T11:36:36;97783.63;;;0.03;77.90
72118;BME280;59992;47.490;8.736;2022-12-18T11:39:15;97781.64;;;0.04;78.31
72118;BME280;59992;47.490;8.736;2022-12-18T11:41:50;97780.54;;;0.08;77.30
72118;BME280;59992;47.490;8.736;2022-12-18T11:44:48;97774.53;;;0.19;76.83
72118;BME280;59992;47.490;8.736;2022-12-18T11:47:26;97764.52;;;0.23;77.38
72118;BME280;59992;47.490;8.736;2022-12-18T11:50:02;97752.18;;;0.07;77.81
72118;BME280;59992;47.490;8.736;2022-12-18T11:52:35;97754.14;;;-0.02;78.93
72118;BME280;59992;47.490;8.736;2022-12-18T11:55:13;97762.31;;;0.08;77.91
72118;BME280;59992;47.490;8.736;2022-12-18T11:57:51;97761.50;;;0.14;77.67
72118;BME280;59992;47.490;8.736;2022-12-18T12:00:25;97757.97;;;0.11;76.75
72118;BME280;59992;47.490;8.736;2022-12-18T12:06:01;97767.46;;;0.12;76.98
72118;BME280;59992;47.490;8.736;2022-12-18T12:08:45;97769.13;;;0.05;77.45
72118;BME280;59992;47.490;8.736;2022-12-18T12:11:26;97774.95;;;0.14;77.11
72118;BME280;59992;47.490;8.736;2022-12-18T12:14:12;97774.66;;;0.14;77.35
72118;BME280;59992;47.490;8.736;2022-12-18T12:16:51;97778.98;;;0.00;79.05
72118;BME280;59992;47.490;8.736;2022-12-18T12:19:34;97779.56;;;0.02;78.24
72118;BME280;59992;47.490;8.736;2022-12-18T12:22:13;97769.75;;;0.03;77.99
72118;BME280;59992;47.490;8.736;2022-12-18T12:24:58;97763.10;;;0.03;78.52
72118;BME280;59992;47.490;8.736;2022-12-18T12:27:40;97766.69;;;0.06;78.88
72118;BME280;59992;47.490;8.736;2022-12-18T12:30:18;97763.12;;;0.15;78.82
72118;BME280;59992;47.490;8.736;2022-12-18T12:32:58;97759.94;;;0.21;78.28
72118;BME280;59992;47.490;8.736;2022-12-18T12:35:42;97753.90;;;0.14;77.25
72118;BME280;59992;47.490;8.736;2022-12-18T12:38:16;97743.46;;;0.12;78.47
72118;BME280;59992;47.490;8.736;2022-12-18T12:40:51;97739.38;;;0.19;78.71
72118;BME280;59992;47.490;8.736;2022-12-18T12:43:27;97741.16;;;0.18;78.58
72118;BME280;59992;47.490;8.736;2022-12-18T12:46:02;97739.71;;;0.17;78.42
72118;BME280;59992;47.490;8.736;2022-12-18T12:48:38;97742.52;;;0.19;77.81
72118;BME280;59992;47.490;8.736;2022-12-18T12:51:15;97745.23;;;0.19;78.27
72118;BME280;59992;47.490;8.736;2022-12-18T12:53:46;97740.77;;;0.13;77.50
72118;BME280;59992;47.490;8.736;2022-12-18T12:56:16;97734.56;;;0.09;77.96
72118;BME280;59992;47.490;8.736;2022-12-18T12:58:54;97737.64;;;0.04;78.39
72118;BME280;59992;47.490;8.736;2022-12-18T13:01:32;97732.81;;;-0.03;78.43
72118;BME280;59992;47.490;8.736;2022-12-18T13:04:15;97725.67;;;-0.01;78.88
72118;BME280;59992;47.490;8.736;2022-12-18T13:06:56;97724.54;;;-0.13;79.89
72118;BME280;59992;47.490;8.736;2022-12-18T13:09:31;97731.80;;;-0.20;80.64
72118;BME280;59992;47.490;8.736;2022-12-18T13:12:08;97731.91;;;-0.18;79.91
72118;BME280;59992;47.490;8.736;2022-12-18T13:15:22;97733.77;;;-0.24;80.95
72118;BME280;59992;47.490;8.736;2022-12-18T13:18:04;97736.34;;;-0.27;81.82
72118;BME280;59992;47.490;8.736;2022-12-18T13:20:36;97736.04;;;-0.37;81.12
72118;BME280;59992;47.490;8.736;2022-12-18T13:26:29;97745.77;;;-0.38;80.96
72118;BME280;59992;47.490;8.736;2022-12-18T13:29:01;97745.23;;;-0.29;81.80
72118;BME280;59992;47.490;8.736;2022-12-18T13:31:59;97746.02;;;-0.24;82.37
72118;BME280;59992;47.490;8.736;2022-12-18T13:34:29;97748.05;;;-0.17;81.63
72118;BME280;59992;47.490;8.736;2022-12-18T13:37:40;97740.39;;;-0.16;81.17
72118;BME280;59992;47.490;8.736;2022-12-18T13:40:54;97737.42;;;-0.14;81.60